sensor_id;sensor_type;location;lat;lon;timestamp;temperature;humidity
34406;DHT22;20658;45.630;8.886;2023-03-01T00:00:01;2.90;95.10
34406;DHT22;20658;45.630;8.886;2023-03-01T00:02:38;2.90;95.20
34406;DHT22;20658;45.630;8.886;2023-03-01T00:05:11;3.00;95.20
34406;DHT22;20658;45.630;8.886;2023-03-01T00:07:45;3.00;95.30
34406;DHT22;20658;45.630;8.886;2023-03-01T00:10:18;2.90;95.30
34406;DHT22;20658;45.630;8.886;2023-03-01T00:12:51;2.90;95.30
34406;DHT22;20658;45.630;8.886;2023-03-01T00:15:25;3.40;95.70
34406;DHT22;20658;45.630;8.886;2023-03-01T00:17:59;3.00;95.50
34406;DHT22;20658;45.630;8.886;2023-03-01T00:20:33;3.00;95.70
34406;DHT22;20658;45.630;8.886;2023-03-01T00:23:06;3.00;95.70
34406;DHT22;20658;45.630;8.886;2023-03-01T00:25:41;2.90;95.50
34406;DHT22;20658;45.630;8.886;2023-03-01T00:28:15;3.00;95.70
34406;DHT22;20658;45.630;8.886;2023-03-01T00:30:49;2.90;95.60
34406;DHT22;20658;45.630;8.886;2023-03-01T00:33:24;2.90;95.60
34406;DHT22;20658;45.630;8.886;2023-03-01T00:35:58;2.90;95.60
34406;DHT22;20658;45.630;8.886;2023-03-01T00:38:35;2.90;95.70
34406;DHT22;20658;45.630;8.886;2023-03-01T00:41:10;2.90;95.90
34406;DHT22;20658;45.630;8.886;2023-03-01T00:43:46;3.00;96.10
34406;DHT22;20658;45.630;8.886;2023-03-01T00:46:21;2.90;96.20
34406;DHT22;20658;45.630;8.886;2023-03-01T00:48:58;2.90;96.20
34406;DHT22;20658;45.630;8.886;2023-03-01T00:51:33;2.90;96.30
34406;DHT22;20658;45.630;8.886;2023-03-01T00:54:08;2.80;96.50
34406;DHT22;20658;45.630;8.886;2023-03-01T00:56:36;2.80;96.70
34406;DHT22;20658;45.630;8.886;2023-03-01T00:59:10;3.10;97.50
34406;DHT22;20658;45.630;8.886;2023-03-01T01:01:43;2.70;97.40
34406;DHT22;20658;45.630;8.886;2023-03-01T01:04:18;3.10;97.50
34406;DHT22;20658;45.630;8.886;2023-03-01T01:06:51;2.80;97.20
34406;DHT22;20658;45.630;8.886;2023-03-01T01:09:24;2.80;97.20
34406;DHT22;20658;45.630;8.886;2023-03-01T01:11:58;2.70;97.30
34406;DHT22;20658;45.630;8.886;2023-03-01T01:14:27;3.00;97.60
34406;DHT22;20658;45.630;8.886;2023-03-01T01:17:00;2.70;97.60
34406;DHT22;20658;45.630;8.886;2023-03-01T01:19:35;2.70;97.30
34406;DHT22;20658;45.630;8.886;2023-03-01T01:22:03;2.70;97.10
34406;DHT22;20658;45.630;8.886;2023-03-01T01:24:37;2.80;97.00
34406;DHT22;20658;45.630;8.886;2023-03-01T01:27:05;2.70;97.10
34406;DHT22;20658;45.630;8.886;2023-03-01T01:29:39;2.70;97.10
34406;DHT22;20658;45.630;8.886;2023-03-01T01:32:13;2.60;97.00
34406;DHT22;20658;45.630;8.886;2023-03-01T01:34:48;2.90;97.50
34406;DHT22;20658;45.630;8.886;2023-03-01T01:37:22;2.60;97.40
34406;DHT22;20658;45.630;8.886;2023-03-01T01:40:01;2.60;97.50
34406;DHT22;20658;45.630;8.886;2023-03-01T01:42:36;2.60;97.50
34406;DHT22;20658;45.630;8.886;2023-03-01T01:45:29;2.50;97.70
34406;DHT22;20658;45.630;8.886;2023-03-01T01:48:09;2.40;97.90
34406;DHT22;20658;45.630;8.886;2023-03-01T01:50:50;2.40;98.00
34406;DHT22;20658;45.630;8.886;2023-03-01T01:53:27;2.40;98.10
34406;DHT22;20658;45.630;8.886;2023-03-01T01:56:01;2.40;98.40
34406;DHT22;20658;45.630;8.886;2023-03-01T01:58:36;2.30;98.70
34406;DHT22;20658;45.630;8.886;2023-03-01T02:01:10;2.60;98.60
34406;DHT22;20658;45.630;8.886;2023-03-01T02:03:46;2.30;98.40
34406;DHT22;20658;45.630;8.886;2023-03-01T02:06:26;2.30;98.50
34406;DHT22;20658;45.630;8.886;2023-03-01T02:09:04;2.20;98.70
34406;DHT22;20658;45.630;8.886;2023-03-01T02:11:40;2.20;98.90
34406;DHT22;20658;45.630;8.886;2023-03-01T02:14:14;2.20;99.00
34406;DHT22;20658;45.630;8.886;2023-03-01T02:16:48;2.10;99.00
34406;DHT22;20658;45.630;8.886;2023-03-01T02:19:32;2.10;99.20
34406;DHT22;20658;45.630;8.886;2023-03-01T02:22:20;2.00;99.20
34406;DHT22;20658;45.630;8.886;2023-03-01T02:25:12;2.10;99.60
34406;DHT22;20658;45.630;8.886;2023-03-01T02:28:02;2.00;99.50
34406;DHT22;20658;45.630;8.886;2023-03-01T02:30:41;2.00;99.60
34406;DHT22;20658;45.630;8.886;2023-03-01T02:33:38;2.00;99.80
34406;DHT22;20658;45.630;8.886;2023-03-01T02:36:15;1.90;99.80
34406;DHT22;20658;45.630;8.886;2023-03-01T02:38:53;2.30;99.90
34406;DHT22;20658;45.630;8.886;2023-03-01T02:41:32;1.90;99.90
34406;DHT22;20658;45.630;8.886;2023-03-01T02:44:08;1.90;99.90
34406;DHT22;20658;45.630;8.886;2023-03-01T02:46:44;1.90;99.90
34406;DHT22;20658;45.630;8.886;2023-03-01T02:49:23;1.80;99.90
34406;DHT22;20658;45.630;8.886;2023-03-01T02:52:20;1.80;99.90
34406;DHT22;20658;45.630;8.886;2023-03-01T02:55:06;1.80;99.90
34406;DHT22;20658;45.630;8.886;2023-03-01T02:57:43;1.80;99.90
34406;DHT22;20658;45.630;8.886;2023-03-01T03:00:21;1.80;99.90
34406;DHT22;20658;45.630;8.886;2023-03-01T03:02:59;1.80;99.90
34406;DHT22;20658;45.630;8.886;2023-03-01T03:05:32;1.80;99.90
34406;DHT22;20658;45.630;8.886;2023-03-01T03:08:06;1.80;99.90
34406;DHT22;20658;45.630;8.886;2023-03-01T03:10:40;2.00;99.90
34406;DHT22;20658;45.630;8.886;2023-03-01T03:13:15;1.70;99.90
34406;DHT22;20658;45.630;8.886;2023-03-01T03:15:44;2.00;99.90
34406;DHT22;20658;45.630;8.886;2023-03-01T03:18:18;1.80;99.90
34406;DHT22;20658;45.630;8.886;2023-03-01T03:20:52;1.70;99.90
34406;DHT22;20658;45.630;8.886;2023-03-01T03:23:26;1.70;99.90
34406;DHT22;20658;45.630;8.886;2023-03-01T03:26:01;1.70;99.90
34406;DHT22;20658;45.630;8.886;2023-03-01T03:28:36;1.70;99.90
34406;DHT22;20658;45.630;8.886;2023-03-01T03:31:11;1.70;99.90
34406;DHT22;20658;45.630;8.886;2023-03-01T03:33:46;1.70;99.90
34406;DHT22;20658;45.630;8.886;2023-03-01T03:36:21;1.70;99.90
34406;DHT22;20658;45.630;8.886;2023-03-01T03:38:55;1.70;99.90
34406;DHT22;20658;45.630;8.886;2023-03-01T03:41:29;1.60;99.90
34406;DHT22;20658;45.630;8.886;2023-03-01T03:44:02;1.70;99.90
34406;DHT22;20658;45.630;8.886;2023-03-01T03:46:35;1.80;99.90
34406;DHT22;20658;45.630;8.886;2023-03-01T03:49:10;1.60;99.90
34406;DHT22;20658;45.630;8.886;2023-03-01T03:51:45;2.00;99.90
34406;DHT22;20658;45.630;8.886;2023-03-01T03:54:18;1.60;99.90
34406;DHT22;20658;45.630;8.886;2023-03-01T03:56:52;1.90;99.90
34406;DHT22;20658;45.630;8.886;2023-03-01T03:59:25;1.60;99.90
34406;DHT22;20658;45.630;8.886;2023-03-01T04:01:59;1.50;99.90
34406;DHT22;20658;45.630;8.886;2023-03-01T04:04:34;1.50;99.90
34406;DHT22;20658;45.630;8.886;2023-03-01T04:07:07;1.50;99.90
34406;DHT22;20658;45.630;8.886;2023-03-01T04:09:41;1.40;99.90
34406;DHT22;20658;45.630;8.886;2023-03-01T04:12:10;1.50;99.90
34406;DHT22;20658;45.630;8.886;2023-03-01T04:14:43;1.80;99.90
34406;DHT22;20658;45.630;8.886;2023-03-01T04:17:17;1.40;99.90
34406;DHT22;20658;45.630;8.886;2023-03-01T04:19:52;1.70;99.90
34406;DHT22;20658;45.630;8.886;2023-03-01T04:22:20;1.40;99.90
34406;DHT22;20658;45.630;8.886;2023-03-01T04:24:53;1.30;99.90
34406;DHT22;20658;45.630;8.886;2023-03-01T04:27:28;1.30;99.90
34406;DHT22;20658;45.630;8.886;2023-03-01T04:30:02;1.30;99.90
34406;DHT22;20658;45.630;8.886;2023-03-01T04:32:36;1.30;99.90
34406;DHT22;20658;45.630;8.886;2023-03-01T04:35:11;1.30;99.90
34406;DHT22;20658;45.630;8.886;2023-03-01T04:37:44;1.30;99.90
34406;DHT22;20658;45.630;8.886;2023-03-01T04:40:13;1.20;99.90
34406;DHT22;20658;45.630;8.886;2023-03-01T04:42:48;1.20;99.90
34406;DHT22;20658;45.630;8.886;2023-03-01T04:45:21;1.20;99.90
34406;DHT22;20658;45.630;8.886;2023-03-01T04:47:54;1.20;99.90
34406;DHT22;20658;45.630;8.886;2023-03-01T04:50:31;1.10;99.90
34406;DHT22;20658;45.630;8.886;2023-03-01T04:53:05;1.10;99.90
34406;DHT22;20658;45.630;8.886;2023-03-01T04:55:38;1.10;99.90
34406;DHT22;20658;45.630;8.886;2023-03-01T04:58:11;1.10;99.90
34406;DHT22;20658;45.630;8.886;2023-03-01T05:00:46;1.10;99.90
34406;DHT22;20658;45.630;8.886;2023-03-01T05:03:20;1.10;99.90
34406;DHT22;20658;45.630;8.886;2023-03-01T05:05:58;1.10;99.90
34406;DHT22;20658;45.630;8.886;2023-03-01T05:11:19;1.00;99.90
34406;DHT22;20658;45.630;8.886;2023-03-01T05:13:53;1.00;99.90
34406;DHT22;20658;45.630;8.886;2023-03-01T05:16:27;1.00;99.90
34406;DHT22;20658;45.630;8.886;2023-03-01T05:19:02;1.00;99.90
34406;DHT22;20658;45.630;8.886;2023-03-01T05:21:44;1.00;99.90
34406;DHT22;20658;45.630;8.886;2023-03-01T05:24:35;1.00;99.90
34406;DHT22;20658;45.630;8.886;2023-03-01T05:27:08;0.90;99.90
34406;DHT22;20658;45.630;8.886;2023-03-01T05:29:42;1.10;99.90
34406;DHT22;20658;45.630;8.886;2023-03-01T05:32:15;0.90;99.90
34406;DHT22;20658;45.630;8.886;2023-03-01T05:34:43;0.90;99.90
34406;DHT22;20658;45.630;8.886;2023-03-01T05:37:19;0.90;99.90
34406;DHT22;20658;45.630;8.886;2023-03-01T05:39:52;0.90;99.90
34406;DHT22;20658;45.630;8.886;2023-03-01T05:42:26;0.90;99.90
34406;DHT22;20658;45.630;8.886;2023-03-01T05:45:01;1.00;99.90
34406;DHT22;20658;45.630;8.886;2023-03-01T05:47:35;1.00;99.90
34406;DHT22;20658;45.630;8.886;2023-03-01T05:50:11;0.90;99.90
34406;DHT22;20658;45.630;8.886;2023-03-01T05:52:47;0.90;99.90
34406;DHT22;20658;45.630;8.886;2023-03-01T05:55:22;0.90;99.90
34406;DHT22;20658;45.630;8.886;2023-03-01T05:57:58;1.10;99.90
34406;DHT22;20658;45.630;8.886;2023-03-01T06:00:33;0.90;99.90
34406;DHT22;20658;45.630;8.886;2023-03-01T06:03:06;0.90;99.90
34406;DHT22;20658;45.630;8.886;2023-03-01T06:05:40;1.00;99.90
34406;DHT22;20658;45.630;8.886;2023-03-01T06:08:11;1.00;99.90
34406;DHT22;20658;45.630;8.886;2023-03-01T06:10:46;0.90;99.90
34406;DHT22;20658;45.630;8.886;2023-03-01T06:13:20;0.90;99.90
34406;DHT22;20658;45.630;8.886;2023-03-01T06:15:54;0.90;99.90
34406;DHT22;20658;45.630;8.886;2023-03-01T06:18:27;0.90;99.90
34406;DHT22;20658;45.630;8.886;2023-03-01T06:21:01;0.90;99.90
34406;DHT22;20658;45.630;8.886;2023-03-01T06:23:35;0.90;99.90
34406;DHT22;20658;45.630;8.886;2023-03-01T06:26:09;0.90;99.90
34406;DHT22;20658;45.630;8.886;2023-03-01T06:28:42;0.90;99.90
34406;DHT22;20658;45.630;8.886;2023-03-01T06:31:17;1.00;99.90
34406;DHT22;20658;45.630;8.886;2023-03-01T06:33:51;1.10;99.90
34406;DHT22;20658;45.630;8.886;2023-03-01T06:36:24;1.00;99.90
34406;DHT22;20658;45.630;8.886;2023-03-01T06:38:59;1.00;99.90
34406;DHT22;20658;45.630;8.886;2023-03-01T06:41:32;1.00;99.90
34406;DHT22;20658;45.630;8.886;2023-03-01T06:44:06;1.00;99.90
34406;DHT22;20658;45.630;8.886;2023-03-01T06:46:40;1.00;99.90
34406;DHT22;20658;45.630;8.886;2023-03-01T06:49:13;1.30;99.90
34406;DHT22;20658;45.630;8.886;2023-03-01T06:51:47;1.10;99.90
34406;DHT22;20658;45.630;8.886;2023-03-01T06:54:23;1.10;99.90
34406;DHT22;20658;45.630;8.886;2023-03-01T06:56:56;1.10;99.90
34406;DHT22;20658;45.630;8.886;2023-03-01T06:59:30;1.70;99.90
34406;DHT22;20658;45.630;8.886;2023-03-01T07:02:03;1.20;99.90
34406;DHT22;20658;45.630;8.886;2023-03-01T07:04:36;1.50;99.90
34406;DHT22;20658;45.630;8.886;2023-03-01T07:07:10;1.30;99.90
34406;DHT22;20658;45.630;8.886;2023-03-01T07:09:45;1.40;99.90
34406;DHT22;20658;45.630;8.886;2023-03-01T07:12:18;1.40;99.90
34406;DHT22;20658;45.630;8.886;2023-03-01T07:14:51;1.60;99.90
34406;DHT22;20658;45.630;8.886;2023-03-01T07:17:25;1.60;99.90
34406;DHT22;20658;45.630;8.886;2023-03-01T07:19:58;1.70;99.90
34406;DHT22;20658;45.630;8.886;2023-03-01T07:22:31;1.80;99.90
34406;DHT22;20658;45.630;8.886;2023-03-01T07:25:07;2.00;99.90
34406;DHT22;20658;45.630;8.886;2023-03-01T07:27:41;2.00;99.90
34406;DHT22;20658;45.630;8.886;2023-03-01T07:30:14;2.10;99.90
34406;DHT22;20658;45.630;8.886;2023-03-01T07:32:48;2.30;99.90
34406;DHT22;20658;45.630;8.886;2023-03-01T07:35:21;2.80;99.90
34406;DHT22;20658;45.630;8.886;2023-03-01T07:37:55;2.70;99.50
34406;DHT22;20658;45.630;8.886;2023-03-01T07:40:31;2.90;98.90
34406;DHT22;20658;45.630;8.886;2023-03-01T07:43:04;3.00;97.90
34406;DHT22;20658;45.630;8.886;2023-03-01T07:45:37;3.20;97.60
34406;DHT22;20658;45.630;8.886;2023-03-01T07:48:10;3.30;97.20
34406;DHT22;20658;45.630;8.886;2023-03-01T07:50:44;3.40;96.90
34406;DHT22;20658;45.630;8.886;2023-03-01T07:53:17;3.50;96.60
34406;DHT22;20658;45.630;8.886;2023-03-01T07:56:00;3.80;96.60
34406;DHT22;20658;45.630;8.886;2023-03-01T07:58:34;3.90;95.40
34406;DHT22;20658;45.630;8.886;2023-03-01T08:01:09;4.00;94.60
34406;DHT22;20658;45.630;8.886;2023-03-01T08:03:44;4.20;95.20
34406;DHT22;20658;45.630;8.886;2023-03-01T08:06:17;4.30;94.70
34406;DHT22;20658;45.630;8.886;2023-03-01T08:08:51;4.40;94.20
34406;DHT22;20658;45.630;8.886;2023-03-01T08:11:28;4.50;93.20
34406;DHT22;20658;45.630;8.886;2023-03-01T08:14:01;4.50;93.10
34406;DHT22;20658;45.630;8.886;2023-03-01T08:16:35;4.40;92.80
34406;DHT22;20658;45.630;8.886;2023-03-01T08:19:10;4.40;92.90
34406;DHT22;20658;45.630;8.886;2023-03-01T08:21:44;4.30;93.30
34406;DHT22;20658;45.630;8.886;2023-03-01T08:24:18;4.40;93.70
34406;DHT22;20658;45.630;8.886;2023-03-01T08:26:52;4.30;93.60
34406;DHT22;20658;45.630;8.886;2023-03-01T08:29:26;4.30;94.00
34406;DHT22;20658;45.630;8.886;2023-03-01T08:31:59;4.20;93.70
34406;DHT22;20658;45.630;8.886;2023-03-01T08:34:33;4.20;94.40
34406;DHT22;20658;45.630;8.886;2023-03-01T08:37:07;4.30;94.30
34406;DHT22;20658;45.630;8.886;2023-03-01T08:39:41;4.40;93.50
34406;DHT22;20658;45.630;8.886;2023-03-01T08:42:16;4.50;92.60
34406;DHT22;20658;45.630;8.886;2023-03-01T08:44:49;4.50;91.90
34406;DHT22;20658;45.630;8.886;2023-03-01T08:47:22;4.60;91.30
34406;DHT22;20658;45.630;8.886;2023-03-01T08:49:55;4.80;89.90
34406;DHT22;20658;45.630;8.886;2023-03-01T08:52:29;5.00;87.90
34406;DHT22;20658;45.630;8.886;2023-03-01T08:55:03;5.30;87.10
34406;DHT22;20658;45.630;8.886;2023-03-01T08:57:38;5.40;84.10
34406;DHT22;20658;45.630;8.886;2023-03-01T09:00:12;5.50;81.80
34406;DHT22;20658;45.630;8.886;2023-03-01T09:02:47;5.60;80.60
34406;DHT22;20658;45.630;8.886;2023-03-01T09:05:20;5.70;77.70
34406;DHT22;20658;45.630;8.886;2023-03-01T09:07:54;6.00;78.20
34406;DHT22;20658;45.630;8.886;2023-03-01T09:10:27;6.30;75.20
34406;DHT22;20658;45.630;8.886;2023-03-01T09:13:02;6.10;71.60
34406;DHT22;20658;45.630;8.886;2023-03-01T09:15:36;5.90;70.70
34406;DHT22;20658;45.630;8.886;2023-03-01T09:18:10;5.80;71.20
34406;DHT22;20658;45.630;8.886;2023-03-01T09:20:43;5.80;71.00
34406;DHT22;20658;45.630;8.886;2023-03-01T09:23:16;5.90;70.40
34406;DHT22;20658;45.630;8.886;2023-03-01T09:25:49;6.00;70.10
34406;DHT22;20658;45.630;8.886;2023-03-01T09:28:24;6.00;70.00
34406;DHT22;20658;45.630;8.886;2023-03-01T09:30:58;6.00;68.90
34406;DHT22;20658;45.630;8.886;2023-03-01T09:33:32;6.00;67.70
34406;DHT22;20658;45.630;8.886;2023-03-01T09:36:08;5.90;68.20
34406;DHT22;20658;45.630;8.886;2023-03-01T09:38:44;6.10;68.50
34406;DHT22;20658;45.630;8.886;2023-03-01T09:41:42;6.20;68.20
34406;DHT22;20658;45.630;8.886;2023-03-01T09:44:34;6.30;68.00
34406;DHT22;20658;45.630;8.886;2023-03-01T09:47:15;6.50;67.80
34406;DHT22;20658;45.630;8.886;2023-03-01T09:49:58;6.60;66.50
34406;DHT22;20658;45.630;8.886;2023-03-01T09:52:39;6.70;66.20
34406;DHT22;20658;45.630;8.886;2023-03-01T09:55:17;6.80;65.90
34406;DHT22;20658;45.630;8.886;2023-03-01T09:57:56;7.10;64.80
34406;DHT22;20658;45.630;8.886;2023-03-01T10:00:42;7.40;63.90
34406;DHT22;20658;45.630;8.886;2023-03-01T10:03:20;7.80;62.90
34406;DHT22;20658;45.630;8.886;2023-03-01T10:06:01;8.10;61.00
34406;DHT22;20658;45.630;8.886;2023-03-01T10:08:40;7.80;59.50
34406;DHT22;20658;45.630;8.886;2023-03-01T10:11:21;7.80;60.30
34406;DHT22;20658;45.630;8.886;2023-03-01T10:13:59;7.90;59.40
34406;DHT22;20658;45.630;8.886;2023-03-01T10:16:43;8.10;59.30
34406;DHT22;20658;45.630;8.886;2023-03-01T10:19:24;8.00;58.70
34406;DHT22;20658;45.630;8.886;2023-03-01T10:22:05;8.20;59.40
34406;DHT22;20658;45.630;8.886;2023-03-01T10:24:46;8.00;59.60
34406;DHT22;20658;45.630;8.886;2023-03-01T10:27:22;8.20;60.00
34406;DHT22;20658;45.630;8.886;2023-03-01T10:30:02;8.20;59.70
34406;DHT22;20658;45.630;8.886;2023-03-01T10:32:40;8.30;59.80
34406;DHT22;20658;45.630;8.886;2023-03-01T10:35:18;8.10;59.90
34406;DHT22;20658;45.630;8.886;2023-03-01T10:38:04;8.00;60.80
34406;DHT22;20658;45.630;8.886;2023-03-01T10:40:50;8.00;61.20
34406;DHT22;20658;45.630;8.886;2023-03-01T10:43:26;7.90;61.90
34406;DHT22;20658;45.630;8.886;2023-03-01T10:46:04;8.10;61.40
34406;DHT22;20658;45.630;8.886;2023-03-01T10:49:14;8.20;60.70
34406;DHT22;20658;45.630;8.886;2023-03-01T10:51:50;8.20;59.80
34406;DHT22;20658;45.630;8.886;2023-03-01T10:54:28;8.70;59.70
34406;DHT22;20658;45.630;8.886;2023-03-01T10:57:04;8.90;56.20
34406;DHT22;20658;45.630;8.886;2023-03-01T10:59:38;8.80;55.80
34406;DHT22;20658;45.630;8.886;2023-03-01T11:02:23;9.50;55.50
34406;DHT22;20658;45.630;8.886;2023-03-01T11:05:16;9.60;54.70
34406;DHT22;20658;45.630;8.886;2023-03-01T11:07:53;9.90;53.80
34406;DHT22;20658;45.630;8.886;2023-03-01T11:10:30;9.80;54.00
34406;DHT22;20658;45.630;8.886;2023-03-01T11:13:13;9.50;54.80
34406;DHT22;20658;45.630;8.886;2023-03-01T11:15:59;9.40;54.70
34406;DHT22;20658;45.630;8.886;2023-03-01T11:18:33;9.20;54.60
34406;DHT22;20658;45.630;8.886;2023-03-01T11:21:07;9.10;55.60
34406;DHT22;20658;45.630;8.886;2023-03-01T11:23:42;9.30;55.40
34406;DHT22;20658;45.630;8.886;2023-03-01T11:26:17;9.80;55.50
34406;DHT22;20658;45.630;8.886;2023-03-01T11:28:55;9.90;53.80
34406;DHT22;20658;45.630;8.886;2023-03-01T11:31:32;9.70;54.70
34406;DHT22;20658;45.630;8.886;2023-03-01T11:34:11;10.00;54.70
34406;DHT22;20658;45.630;8.886;2023-03-01T11:36:51;9.90;53.70
34406;DHT22;20658;45.630;8.886;2023-03-01T11:39:31;9.70;54.90
34406;DHT22;20658;45.630;8.886;2023-03-01T11:42:17;10.20;54.60
34406;DHT22;20658;45.630;8.886;2023-03-01T11:44:54;10.20;53.40
34406;DHT22;20658;45.630;8.886;2023-03-01T11:47:49;10.10;54.00
34406;DHT22;20658;45.630;8.886;2023-03-01T11:50:38;9.70;53.60
34406;DHT22;20658;45.630;8.886;2023-03-01T11:53:35;9.80;54.00
34406;DHT22;20658;45.630;8.886;2023-03-01T11:56:29;10.20;54.30
34406;DHT22;20658;45.630;8.886;2023-03-01T11:59:29;10.30;53.40
34406;DHT22;20658;45.630;8.886;2023-03-01T12:08:31;10.40;53.00
34406;DHT22;20658;45.630;8.886;2023-03-01T12:11:17;11.00;53.50
34406;DHT22;20658;45.630;8.886;2023-03-01T12:14:13;10.80;53.00
34406;DHT22;20658;45.630;8.886;2023-03-01T12:17:12;10.60;53.10
34406;DHT22;20658;45.630;8.886;2023-03-01T12:20:16;10.60;53.80
34406;DHT22;20658;45.630;8.886;2023-03-01T12:23:12;10.80;53.10
34406;DHT22;20658;45.630;8.886;2023-03-01T12:26:12;11.00;52.90
34406;DHT22;20658;45.630;8.886;2023-03-01T12:29:16;10.90;53.20
34406;DHT22;20658;45.630;8.886;2023-03-01T12:32:07;10.70;53.00
34406;DHT22;20658;45.630;8.886;2023-03-01T12:34:55;10.70;53.10
34406;DHT22;20658;45.630;8.886;2023-03-01T12:37:54;10.70;52.50
34406;DHT22;20658;45.630;8.886;2023-03-01T12:40:46;11.00;53.20
34406;DHT22;20658;45.630;8.886;2023-03-01T12:43:46;11.30;52.90
34406;DHT22;20658;45.630;8.886;2023-03-01T12:46:36;11.10;52.60
34406;DHT22;20658;45.630;8.886;2023-03-01T12:49:28;11.20;52.80
34406;DHT22;20658;45.630;8.886;2023-03-01T12:52:10;11.30;52.30
34406;DHT22;20658;45.630;8.886;2023-03-01T12:54:47;11.60;52.10
34406;DHT22;20658;45.630;8.886;2023-03-01T12:57:26;11.60;51.60
34406;DHT22;20658;45.630;8.886;2023-03-01T13:00:22;11.70;51.60
34406;DHT22;20658;45.630;8.886;2023-03-01T13:03:09;11.80;50.90
34406;DHT22;20658;45.630;8.886;2023-03-01T13:06:04;11.80;50.60
34406;DHT22;20658;45.630;8.886;2023-03-01T13:08:46;12.10;50.10
34406;DHT22;20658;45.630;8.886;2023-03-01T13:11:22;12.00;49.80
34406;DHT22;20658;45.630;8.886;2023-03-01T13:14:35;11.90;50.40
34406;DHT22;20658;45.630;8.886;2023-03-01T13:20:13;11.90;50.50
34406;DHT22;20658;45.630;8.886;2023-03-01T13:23:01;11.60;50.50
34406;DHT22;20658;45.630;8.886;2023-03-01T13:28:53;11.70;50.60
34406;DHT22;20658;45.630;8.886;2023-03-01T13:31:58;12.00;50.80
34406;DHT22;20658;45.630;8.886;2023-03-01T13:37:35;12.00;50.90
34406;DHT22;20658;45.630;8.886;2023-03-01T13:43:30;12.00;51.60
34406;DHT22;20658;45.630;8.886;2023-03-01T13:46:09;11.90;51.30
34406;DHT22;20658;45.630;8.886;2023-03-01T13:48:49;11.70;51.80
34406;DHT22;20658;45.630;8.886;2023-03-01T13:51:25;11.70;52.30
34406;DHT22;20658;45.630;8.886;2023-03-01T13:54:00;11.80;51.80
34406;DHT22;20658;45.630;8.886;2023-03-01T13:56:37;11.80;51.90
34406;DHT22;20658;45.630;8.886;2023-03-01T13:59:15;11.80;51.90
34406;DHT22;20658;45.630;8.886;2023-03-01T14:01:52;11.60;51.60
34406;DHT22;20658;45.630;8.886;2023-03-01T14:04:28;11.60;52.20
34406;DHT22;20658;45.630;8.886;2023-03-01T14:07:10;11.50;52.30
34406;DHT22;20658;45.630;8.886;2023-03-01T14:09:48;11.30;52.60
34406;DHT22;20658;45.630;8.886;2023-03-01T14:12:34;11.40;52.90
34406;DHT22;20658;45.630;8.886;2023-03-01T14:15:18;11.30;52.90
34406;DHT22;20658;45.630;8.886;2023-03-01T14:17:59;11.20;52.80
34406;DHT22;20658;45.630;8.886;2023-03-01T14:20:40;11.50;53.10
34406;DHT22;20658;45.630;8.886;2023-03-01T14:23:18;11.20;53.00
34406;DHT22;20658;45.630;8.886;2023-03-01T14:25:57;11.10;52.90
34406;DHT22;20658;45.630;8.886;2023-03-01T14:28:31;11.10;53.00
34406;DHT22;20658;45.630;8.886;2023-03-01T14:31:31;11.00;52.60
34406;DHT22;20658;45.630;8.886;2023-03-01T14:34:19;11.00;52.70
34406;DHT22;20658;45.630;8.886;2023-03-01T14:36:53;11.00;53.20
34406;DHT22;20658;45.630;8.886;2023-03-01T14:39:26;10.90;53.40
34406;DHT22;20658;45.630;8.886;2023-03-01T14:42:04;10.80;53.60
34406;DHT22;20658;45.630;8.886;2023-03-01T14:44:38;10.70;53.60
34406;DHT22;20658;45.630;8.886;2023-03-01T14:47:13;10.60;53.80
34406;DHT22;20658;45.630;8.886;2023-03-01T14:49:51;10.60;54.10
34406;DHT22;20658;45.630;8.886;2023-03-01T14:52:34;10.50;54.20
34406;DHT22;20658;45.630;8.886;2023-03-01T14:55:16;10.40;53.90
34406;DHT22;20658;45.630;8.886;2023-03-01T14:57:53;10.30;54.30
34406;DHT22;20658;45.630;8.886;2023-03-01T15:00:28;10.40;54.50
34406;DHT22;20658;45.630;8.886;2023-03-01T15:03:06;10.30;54.60
34406;DHT22;20658;45.630;8.886;2023-03-01T15:05:45;10.10;54.80
34406;DHT22;20658;45.630;8.886;2023-03-01T15:08:20;10.10;54.70
34406;DHT22;20658;45.630;8.886;2023-03-01T15:10:58;10.10;55.20
34406;DHT22;20658;45.630;8.886;2023-03-01T15:13:35;10.00;55.00
34406;DHT22;20658;45.630;8.886;2023-03-01T15:16:10;10.00;55.80
34406;DHT22;20658;45.630;8.886;2023-03-01T15:18:46;10.00;55.50
34406;DHT22;20658;45.630;8.886;2023-03-01T15:21:22;9.90;55.90
34406;DHT22;20658;45.630;8.886;2023-03-01T15:23:59;9.80;56.20
34406;DHT22;20658;45.630;8.886;2023-03-01T15:26:47;9.80;56.60
34406;DHT22;20658;45.630;8.886;2023-03-01T15:29:29;9.70;56.80
34406;DHT22;20658;45.630;8.886;2023-03-01T15:32:06;9.60;57.40
34406;DHT22;20658;45.630;8.886;2023-03-01T15:34:58;9.60;58.00
34406;DHT22;20658;45.630;8.886;2023-03-01T15:37:44;9.50;58.50
34406;DHT22;20658;45.630;8.886;2023-03-01T15:40:21;9.40;58.40
34406;DHT22;20658;45.630;8.886;2023-03-01T15:43:04;9.50;59.00
34406;DHT22;20658;45.630;8.886;2023-03-01T15:45:40;9.40;59.50
34406;DHT22;20658;45.630;8.886;2023-03-01T15:48:17;9.30;59.70
34406;DHT22;20658;45.630;8.886;2023-03-01T15:50:55;9.20;60.00
34406;DHT22;20658;45.630;8.886;2023-03-01T15:53:30;9.20;60.20
34406;DHT22;20658;45.630;8.886;2023-03-01T15:56:04;9.20;60.40
34406;DHT22;20658;45.630;8.886;2023-03-01T15:58:39;9.10;60.90
34406;DHT22;20658;45.630;8.886;2023-03-01T16:01:15;9.10;60.80
34406;DHT22;20658;45.630;8.886;2023-03-01T16:03:49;9.00;60.80
34406;DHT22;20658;45.630;8.886;2023-03-01T16:06:23;8.90;61.20
34406;DHT22;20658;45.630;8.886;2023-03-01T16:08:57;8.90;61.40
34406;DHT22;20658;45.630;8.886;2023-03-01T16:11:30;8.80;61.30
34406;DHT22;20658;45.630;8.886;2023-03-01T16:14:04;8.90;61.90
34406;DHT22;20658;45.630;8.886;2023-03-01T16:16:39;8.80;62.00
34406;DHT22;20658;45.630;8.886;2023-03-01T16:19:12;8.80;62.20
34406;DHT22;20658;45.630;8.886;2023-03-01T16:21:46;8.80;62.90
34406;DHT22;20658;45.630;8.886;2023-03-01T16:24:21;8.80;62.90
34406;DHT22;20658;45.630;8.886;2023-03-01T16:26:54;8.70;63.00
34406;DHT22;20658;45.630;8.886;2023-03-01T16:29:27;8.60;63.40
34406;DHT22;20658;45.630;8.886;2023-03-01T16:32:03;8.50;63.80
34406;DHT22;20658;45.630;8.886;2023-03-01T16:34:31;8.50;64.10
34406;DHT22;20658;45.630;8.886;2023-03-01T16:37:05;8.50;64.60
34406;DHT22;20658;45.630;8.886;2023-03-01T16:39:38;8.40;64.90
34406;DHT22;20658;45.630;8.886;2023-03-01T16:42:12;8.40;65.50
34406;DHT22;20658;45.630;8.886;2023-03-01T16:44:45;8.40;65.50
34406;DHT22;20658;45.630;8.886;2023-03-01T16:47:20;8.30;66.00
34406;DHT22;20658;45.630;8.886;2023-03-01T16:49:53;8.30;66.20
34406;DHT22;20658;45.630;8.886;2023-03-01T16:52:27;8.20;66.30
34406;DHT22;20658;45.630;8.886;2023-03-01T16:55:02;8.20;66.30
34406;DHT22;20658;45.630;8.886;2023-03-01T16:57:37;8.10;66.60
34406;DHT22;20658;45.630;8.886;2023-03-01T17:00:12;8.10;67.10
34406;DHT22;20658;45.630;8.886;2023-03-01T17:02:47;8.00;67.30
34406;DHT22;20658;45.630;8.886;2023-03-01T17:05:20;8.00;67.40
34406;DHT22;20658;45.630;8.886;2023-03-01T17:07:56;7.90;67.80